Sign in

Advertising

Info

Aviation weather - KDAB

METAR KDAB 271653Z 28005KT 10SM FEW030 SCT040 SCT150 30/22 A2994 RMK AO2 SLP137 T03000222

TAF KDAB 271417Z 2714/2812 32004KT P6SM SCT010 TEMPO 2714/2716 BKN010 FM271900 04007KT P6SM SCT035 FM272100 09008KT P6SM VCSH SCT040 FM280000 22003KT P6SM FEW030 SCT250 FM280600 25003KT P6SM FEW250

Aviation weather from ADDS. Re-check weather before flight.

-